createdAt,value
2022-08-11T00:00:01.527Z,31.23
2022-08-11T00:02:35.892Z,31.20
2022-08-11T00:05:09.507Z,31.17
2022-08-11T00:07:46.003Z,31.13
2022-08-11T00:10:17.804Z,31.12
2022-08-11T00:12:54.417Z,31.09
2022-08-11T00:15:23.832Z,31.06
2022-08-11T00:17:59.012Z,31.04
2022-08-11T00:20:32.620Z,31.02
2022-08-11T00:23:07.697Z,30.99
2022-08-11T00:25:41.705Z,30.97
2022-08-11T00:28:29.402Z,30.94
2022-08-11T00:31:04.756Z,30.91
2022-08-11T00:33:44.540Z,30.90
2022-08-11T00:36:22.052Z,30.88
2022-08-11T00:38:55.272Z,30.85
2022-08-11T00:41:34.598Z,30.82
2022-08-11T00:44:30.187Z,30.78
2022-08-11T00:47:18.871Z,30.75
2022-08-11T00:50:02.727Z,30.71
2022-08-11T00:53:23.555Z,30.66
2022-08-11T00:56:52.995Z,30.58
2022-08-11T01:00:03.781Z,30.54
2022-08-11T01:03:20.601Z,30.49
2022-08-11T01:06:39.586Z,30.47
2022-08-11T01:09:37.219Z,30.45
2022-08-11T01:12:47.107Z,30.42
2022-08-11T01:16:02.551Z,30.38
2022-08-11T01:19:21.784Z,30.36
2022-08-11T01:22:35.519Z,30.32
2022-08-11T01:26:11.398Z,30.30
2022-08-11T01:29:27.466Z,30.28
2022-08-11T01:32:56.868Z,30.25
2022-08-11T01:36:18.826Z,30.22
2022-08-11T01:39:34.475Z,30.19
2022-08-11T01:42:47.829Z,30.20
2022-08-11T01:45:32.205Z,30.16
2022-08-11T01:48:06.300Z,30.15
2022-08-11T01:50:54.846Z,30.12
2022-08-11T01:53:36.075Z,30.08
2022-08-11T01:56:21.897Z,30.06
2022-08-11T01:59:01.814Z,30.06
2022-08-11T02:01:45.692Z,30.02
2022-08-11T02:04:26.412Z,30.00
2022-08-11T02:07:08.730Z,29.97
2022-08-11T02:09:57.003Z,29.95
2022-08-11T02:12:49.931Z,29.90
2022-08-11T02:15:34.506Z,29.90
2022-08-11T02:18:12.577Z,29.87
2022-08-11T02:21:04.577Z,29.85
2022-08-11T02:24:06.290Z,29.82
2022-08-11T02:26:43.249Z,29.80
2022-08-11T02:29:20.738Z,29.76
2022-08-11T02:32:30.648Z,29.75
2022-08-11T02:35:18.976Z,29.69
2022-08-11T02:38:02.269Z,29.67
2022-08-11T02:40:47.040Z,29.65
2022-08-11T02:43:36.873Z,29.63
2022-08-11T02:46:23.392Z,29.59
2022-08-11T02:49:18.007Z,29.58
2022-08-11T02:52:05.163Z,29.53
2022-08-11T02:54:40.798Z,29.53
2022-08-11T02:57:19.263Z,29.51
2022-08-11T02:59:54.975Z,29.50
2022-08-11T03:02:47.038Z,29.48
2022-08-11T03:05:39.986Z,29.45
2022-08-11T03:08:27.000Z,29.42
2022-08-11T03:11:26.195Z,29.40
2022-08-11T03:14:28.557Z,29.38
2022-08-11T03:17:07.697Z,29.35
2022-08-11T03:19:53.302Z,29.33
2022-08-11T03:22:28.315Z,29.32
2022-08-11T03:25:04.755Z,29.32
2022-08-11T03:27:44.646Z,29.29
2022-08-11T03:30:19.447Z,29.27
2022-08-11T03:33:27.286Z,29.25
2022-08-11T03:36:12.080Z,29.22
2022-08-11T03:39:02.804Z,29.19
2022-08-11T03:42:03.542Z,29.18
2022-08-11T03:44:51.685Z,29.14
2022-08-11T03:47:36.449Z,29.12
2022-08-11T03:50:24.872Z,29.11
2022-08-11T03:53:11.707Z,29.10
2022-08-11T03:56:29.323Z,29.05
2022-08-11T03:59:39.559Z,29.01
2022-08-11T04:02:39.340Z,29.00
2022-08-11T04:05:54.238Z,28.96
2022-08-11T04:09:02.561Z,28.93
2022-08-11T04:12:14.656Z,28.91
2022-08-11T04:16:00.846Z,28.87
2022-08-11T04:19:40.001Z,28.84
2022-08-11T04:24:36.542Z,28.79
2022-08-11T04:26:37.957Z,28.78
2022-08-11T04:29:36.023Z,28.78
2022-08-11T04:32:30.069Z,28.77
2022-08-11T04:35:20.588Z,28.76
2022-08-11T04:38:34.790Z,28.74
2022-08-11T04:42:31.027Z,28.68
2022-08-11T04:45:52.743Z,28.64
2022-08-11T04:48:57.550Z,28.66
2022-08-11T04:52:35.799Z,28.62
2022-08-11T04:55:50.971Z,28.59
2022-08-11T04:58:44.471Z,28.58
2022-08-11T05:01:42.273Z,28.58
2022-08-11T05:04:57.824Z,28.55
2022-08-11T05:08:15.297Z,28.51
2022-08-11T05:10:59.676Z,28.53
2022-08-11T05:13:52.530Z,28.51
2022-08-11T05:16:45.641Z,28.51
2022-08-11T05:19:36.760Z,28.51
2022-08-11T05:22:27.892Z,28.51
2022-08-11T05:26:45.430Z,28.51
2022-08-11T05:28:30.687Z,28.50
2022-08-11T05:31:23.288Z,28.50
2022-08-11T05:34:11.798Z,28.51
2022-08-11T05:36:49.860Z,28.50
2022-08-11T05:39:42.601Z,28.49
2022-08-11T05:42:30.720Z,28.48
2022-08-11T05:45:23.269Z,28.48
2022-08-11T05:48:14.116Z,28.48
2022-08-11T05:51:02.609Z,28.48
2022-08-11T05:54:07.023Z,28.47
2022-08-11T05:56:58.296Z,28.49
2022-08-11T05:59:28.689Z,28.50
2022-08-11T06:02:03.593Z,28.52
2022-08-11T06:04:34.090Z,28.53
2022-08-11T06:07:06.366Z,28.53
2022-08-11T06:09:37.914Z,28.55
2022-08-11T06:12:09.606Z,28.55
2022-08-11T06:14:46.042Z,28.58
2022-08-11T06:17:14.891Z,28.58
2022-08-11T06:19:50.641Z,28.60
2022-08-11T06:22:23.570Z,28.61
2022-08-11T06:24:58.801Z,28.63
2022-08-11T06:27:32.009Z,28.65
2022-08-11T06:30:01.128Z,28.67
2022-08-11T06:32:33.553Z,28.68
2022-08-11T06:35:21.145Z,28.70
2022-08-11T06:38:07.740Z,28.71
2022-08-11T06:41:05.248Z,28.70
2022-08-11T06:43:55.985Z,28.72
2022-08-11T06:46:31.568Z,28.73
2022-08-11T06:49:04.651Z,28.74
2022-08-11T06:51:35.345Z,28.75
2022-08-11T06:54:07.471Z,28.95
2022-08-11T06:57:26.311Z,28.84
2022-08-11T07:00:04.177Z,28.80
2022-08-11T07:02:35.453Z,28.78
2022-08-11T07:05:10.073Z,28.80
2022-08-11T07:08:58.730Z,28.75
2022-08-11T07:12:19.898Z,28.77
2022-08-11T07:15:11.368Z,28.79
2022-08-11T07:18:08.902Z,28.81
2022-08-11T07:21:01.779Z,28.83
2022-08-11T07:23:49.808Z,28.85
2022-08-11T07:26:38.271Z,28.89
2022-08-11T07:29:10.631Z,28.92
2022-08-11T07:31:45.335Z,28.95
2022-08-11T07:34:21.038Z,28.98
2022-08-11T07:36:55.382Z,29.02
2022-08-11T07:39:28.870Z,29.02
2022-08-11T07:42:00.231Z,29.01
2022-08-11T07:44:34.835Z,29.01
2022-08-11T07:47:22.382Z,29.03
2022-08-11T07:50:11.955Z,29.05
2022-08-11T07:52:41.064Z,29.06
2022-08-11T07:55:17.879Z,29.10
2022-08-11T07:58:15.499Z,29.14
2022-08-11T08:01:21.831Z,29.19
2022-08-11T08:04:09.600Z,29.22
2022-08-11T08:06:57.105Z,29.26
2022-08-11T08:09:44.642Z,29.32
2022-08-11T08:12:33.920Z,29.38
2022-08-11T08:15:25.979Z,29.45
2022-08-11T08:18:09.137Z,29.54
2022-08-11T08:20:50.055Z,29.63
2022-08-11T08:23:33.200Z,29.72
2022-08-11T08:26:16.786Z,29.83
2022-08-11T08:28:47.410Z,29.91
2022-08-11T08:31:16.130Z,30.00
2022-08-11T08:33:44.976Z,30.06
2022-08-11T08:36:15.615Z,30.15
2022-08-11T08:38:50.315Z,30.23
2022-08-11T08:41:23.842Z,30.30
2022-08-11T08:44:20.632Z,30.34
2022-08-11T08:46:52.856Z,30.40
2022-08-11T08:49:28.429Z,30.49
2022-08-11T08:52:26.328Z,30.58
2022-08-11T08:54:57.231Z,30.65
2022-08-11T08:57:30.166Z,30.72
2022-08-11T09:00:01.414Z,30.79
2022-08-11T09:02:33.979Z,30.86
2022-08-11T09:05:05.432Z,30.94
2022-08-11T09:07:39.540Z,31.01
2022-08-11T09:10:11.636Z,31.11
2022-08-11T09:12:43.488Z,31.17
2022-08-11T09:15:19.765Z,31.22
2022-08-11T09:17:50.757Z,31.28
2022-08-11T09:20:23.907Z,31.32
2022-08-11T09:26:21.855Z,31.47
2022-08-11T09:28:51.506Z,31.52
2022-08-11T09:31:23.148Z,31.56
2022-08-11T09:33:55.900Z,31.64
2022-08-11T09:36:42.429Z,31.70
2022-08-11T09:39:31.304Z,31.78
2022-08-11T09:42:03.344Z,31.85
2022-08-11T09:44:48.855Z,31.91
2022-08-11T09:47:25.866Z,31.95
2022-08-11T09:50:00.386Z,32.04
2022-08-11T09:52:33.726Z,32.12
2022-08-11T09:55:10.969Z,32.17
2022-08-11T09:57:59.515Z,32.23
2022-08-11T10:00:31.636Z,32.29
2022-08-11T10:03:02.831Z,32.34
2022-08-11T10:05:49.828Z,32.39
2022-08-11T10:08:20.478Z,32.46
2022-08-11T10:10:50.915Z,32.53
2022-08-11T10:14:31.723Z,32.63
2022-08-11T10:16:15.940Z,32.69
2022-08-11T10:18:53.045Z,32.78
2022-08-11T10:21:36.434Z,32.83
2022-08-11T10:24:25.385Z,32.92
2022-08-11T10:27:00.143Z,32.94
2022-08-11T10:29:52.000Z,32.99
2022-08-11T10:32:57.570Z,33.03
2022-08-11T10:35:31.978Z,33.04
2022-08-11T10:38:08.464Z,33.08
2022-08-11T10:40:41.369Z,33.15
2022-08-11T10:43:14.101Z,33.21
2022-08-11T10:46:05.069Z,33.31
2022-08-11T10:48:41.333Z,33.32
2022-08-11T10:51:50.157Z,33.33
2022-08-11T10:54:24.636Z,33.34
2022-08-11T10:57:13.265Z,33.36
2022-08-11T10:59:43.415Z,33.39
2022-08-11T11:02:15.797Z,33.46
2022-08-11T11:05:09.355Z,33.51
2022-08-11T11:07:46.177Z,33.58
2022-08-11T11:10:14.741Z,33.62
2022-08-11T11:13:04.837Z,33.71
2022-08-11T11:15:53.646Z,33.77
2022-08-11T11:18:25.931Z,33.81
2022-08-11T11:20:58.785Z,33.84
2022-08-11T11:23:40.305Z,33.88
2022-08-11T11:26:39.428Z,33.92
2022-08-11T11:29:32.973Z,33.98
2022-08-11T11:32:19.003Z,34.01
2022-08-11T11:35:18.038Z,34.05
2022-08-11T11:37:56.166Z,34.10
2022-08-11T11:40:35.032Z,34.19
2022-08-11T11:43:04.178Z,34.24
2022-08-11T11:45:33.335Z,34.26
2022-08-11T11:48:03.346Z,34.30
2022-08-11T11:50:35.658Z,34.34
2022-08-11T11:53:09.278Z,34.40
2022-08-11T11:55:39.934Z,34.40
2022-08-11T11:58:27.313Z,34.42
2022-08-11T12:01:15.483Z,34.42
2022-08-11T12:03:47.561Z,34.44
2022-08-11T12:06:16.699Z,34.48
2022-08-11T12:08:49.886Z,34.52
2022-08-11T12:11:43.556Z,34.56
2022-08-11T12:14:13.411Z,34.58
2022-08-11T12:16:46.278Z,34.61
2022-08-11T12:19:17.064Z,34.62
2022-08-11T12:22:04.852Z,34.64
2022-08-11T12:24:54.011Z,34.71
2022-08-11T12:27:26.287Z,34.76
2022-08-11T12:30:06.035Z,34.83
2022-08-11T12:32:38.432Z,34.88
2022-08-11T12:35:09.585Z,34.95
2022-08-11T12:37:42.163Z,34.98
2022-08-11T12:40:49.893Z,34.99
2022-08-11T12:43:41.787Z,35.01
2022-08-11T12:46:15.635Z,35.07
2022-08-11T12:49:04.851Z,35.08
2022-08-11T12:52:01.028Z,35.12
2022-08-11T12:54:59.887Z,35.19
2022-08-11T12:57:50.976Z,35.29
2022-08-11T13:00:40.386Z,35.34
2022-08-11T13:03:29.214Z,35.37
2022-08-11T13:06:01.777Z,35.39
2022-08-11T13:08:35.485Z,35.46
2022-08-11T13:11:23.118Z,35.53
2022-08-11T13:13:57.718Z,35.57
2022-08-11T13:16:53.191Z,35.60
2022-08-11T13:19:23.739Z,35.65
2022-08-11T13:21:55.352Z,35.70
2022-08-11T13:24:25.134Z,35.77
2022-08-11T13:26:54.156Z,35.86
2022-08-11T13:29:26.654Z,35.91
2022-08-11T13:32:00.466Z,35.95
2022-08-11T13:34:32.330Z,35.98
2022-08-11T13:37:05.039Z,36.01
2022-08-11T13:39:36.382Z,36.08
2022-08-11T13:42:06.878Z,36.12
2022-08-11T13:44:39.176Z,36.12
2022-08-11T13:47:13.384Z,36.11
2022-08-11T13:49:43.287Z,36.11
2022-08-11T13:52:15.381Z,36.14
2022-08-11T13:54:48.047Z,36.11
2022-08-11T13:58:08.234Z,36.11
2022-08-11T14:00:13.358Z,36.11
2022-08-11T14:02:57.065Z,36.11
2022-08-11T14:05:30.411Z,36.16
2022-08-11T14:08:03.728Z,36.19
2022-08-11T14:10:35.324Z,36.19
2022-08-11T14:13:27.331Z,36.19
2022-08-11T14:16:02.191Z,36.18
2022-08-11T14:18:34.090Z,36.20
2022-08-11T14:21:24.198Z,36.22
2022-08-11T14:23:59.300Z,36.22
2022-08-11T14:26:31.825Z,36.24
2022-08-11T14:29:04.390Z,36.28
2022-08-11T14:31:35.480Z,36.28
2022-08-11T14:34:08.555Z,36.29
2022-08-11T14:36:41.088Z,36.31
2022-08-11T14:39:12.924Z,36.33
2022-08-11T14:42:07.668Z,36.32
2022-08-11T14:45:03.552Z,36.30
2022-08-11T14:47:35.747Z,36.30
2022-08-11T14:50:12.482Z,36.34
2022-08-11T14:52:50.393Z,36.37
2022-08-11T14:55:37.998Z,36.40
2022-08-11T14:58:10.147Z,36.39
2022-08-11T15:00:40.246Z,36.39
2022-08-11T15:03:11.703Z,36.41
2022-08-11T15:05:56.765Z,36.40
2022-08-11T15:08:47.977Z,36.34
2022-08-11T15:11:37.128Z,36.32
2022-08-11T15:14:09.237Z,36.33
2022-08-11T15:17:00.177Z,36.36
2022-08-11T15:19:40.114Z,36.33
2022-08-11T15:22:29.477Z,36.32
2022-08-11T15:25:00.156Z,36.29
2022-08-11T15:27:49.659Z,36.28
2022-08-11T15:30:35.891Z,36.24
2022-08-11T15:33:27.948Z,36.20
2022-08-11T15:36:16.107Z,36.17
2022-08-11T15:38:55.390Z,36.14
2022-08-11T15:41:54.376Z,36.12
2022-08-11T15:45:03.508Z,36.09
2022-08-11T15:47:41.332Z,36.06
2022-08-11T15:50:16.292Z,36.05
2022-08-11T15:52:54.892Z,36.01
2022-08-11T15:55:25.904Z,36.03
2022-08-11T15:58:13.992Z,36.03
2022-08-11T16:01:04.388Z,35.97
2022-08-11T16:04:07.240Z,35.90
2022-08-11T16:06:54.266Z,35.85
2022-08-11T16:09:37.584Z,35.85
2022-08-11T16:12:22.158Z,35.83
2022-08-11T16:15:13.726Z,35.80
2022-08-11T16:17:45.813Z,35.77
2022-08-11T16:20:16.979Z,35.79
2022-08-11T16:23:01.325Z,35.78
2022-08-11T16:27:02.679Z,35.75
2022-08-11T16:28:29.290Z,35.71
2022-08-11T16:30:58.928Z,35.69
2022-08-11T16:33:50.554Z,35.68
2022-08-11T16:36:35.453Z,35.65
2022-08-11T16:39:05.188Z,35.63
2022-08-11T16:41:54.821Z,35.63
2022-08-11T16:44:44.128Z,35.63
2022-08-11T16:47:16.105Z,35.65
2022-08-11T16:49:52.304Z,35.67
2022-08-11T16:52:22.462Z,35.68
2022-08-11T16:54:52.899Z,35.66
2022-08-11T16:57:43.967Z,35.66
2022-08-11T17:00:17.469Z,35.64
2022-08-11T17:03:08.541Z,35.66
2022-08-11T17:06:01.008Z,35.63
2022-08-11T17:08:57.490Z,35.60
2022-08-11T17:11:46.994Z,35.58
2022-08-11T17:14:18.469Z,35.55
2022-08-11T17:17:08.380Z,35.55
2022-08-11T17:20:39.581Z,35.56
2022-08-11T17:22:50.555Z,35.54
2022-08-11T17:25:20.678Z,35.54
2022-08-11T17:27:49.971Z,35.54
2022-08-11T17:30:18.952Z,35.54
2022-08-11T17:33:09.114Z,35.54
2022-08-11T17:35:44.646Z,35.48
2022-08-11T17:38:18.786Z,35.47
2022-08-11T17:41:07.018Z,35.45
2022-08-11T17:43:53.757Z,35.43
2022-08-11T17:46:40.153Z,35.40
2022-08-11T17:49:13.201Z,35.36
2022-08-11T17:52:03.526Z,35.36
2022-08-11T17:54:52.620Z,35.32
2022-08-11T17:57:47.499Z,35.26
2022-08-11T18:00:17.220Z,35.21
2022-08-11T18:03:04.823Z,35.20
2022-08-11T18:05:38.851Z,35.17
2022-08-11T18:08:28.578Z,35.16
2022-08-11T18:11:17.551Z,35.14
2022-08-11T18:14:25.798Z,35.12
2022-08-11T18:17:11.882Z,35.07
2022-08-11T18:19:58.204Z,35.05
2022-08-11T18:22:50.882Z,35.05
2022-08-11T18:25:45.338Z,35.03
2022-08-11T18:28:36.044Z,34.99
2022-08-11T18:31:24.787Z,34.99
2022-08-11T18:34:14.439Z,34.99
2022-08-11T18:37:09.533Z,34.95
2022-08-11T18:40:15.759Z,34.93
2022-08-11T18:43:06.056Z,34.91
2022-08-11T18:46:00.512Z,34.89
2022-08-11T18:48:55.797Z,34.87
2022-08-11T18:51:44.247Z,34.85
2022-08-11T18:54:32.528Z,34.84
2022-08-11T18:57:22.829Z,34.83
2022-08-11T19:00:10.850Z,34.81
2022-08-11T19:03:00.494Z,34.79
2022-08-11T19:06:06.126Z,34.76
2022-08-11T19:09:07.507Z,34.71
2022-08-11T19:11:55.605Z,34.70
2022-08-11T19:14:53.338Z,34.67
2022-08-11T19:17:44.647Z,34.66
2022-08-11T19:20:37.086Z,34.63
2022-08-11T19:23:27.558Z,34.62
2022-08-11T19:26:15.567Z,34.60
2022-08-11T19:29:04.558Z,34.57
2022-08-11T19:31:53.133Z,34.55
2022-08-11T19:34:42.729Z,34.52
2022-08-11T19:37:30.391Z,34.49
2022-08-11T19:40:20.969Z,34.47
2022-08-11T19:43:14.788Z,34.44
2022-08-11T19:46:11.272Z,34.41
2022-08-11T19:49:01.288Z,34.41
2022-08-11T19:51:53.409Z,34.36
2022-08-11T19:54:44.858Z,34.34
2022-08-11T19:57:37.109Z,34.31
2022-08-11T20:00:30.411Z,34.27
2022-08-11T20:03:18.198Z,34.24
2022-08-11T20:06:07.181Z,34.22
2022-08-11T20:08:58.607Z,34.19
2022-08-11T20:11:47.268Z,34.16
2022-08-11T20:14:35.618Z,34.12
2022-08-11T20:17:23.171Z,34.08
2022-08-11T20:20:12.256Z,34.04
2022-08-11T20:23:01.200Z,34.00
2022-08-11T20:25:51.298Z,33.97
2022-08-11T20:28:38.824Z,33.92
2022-08-11T20:31:37.118Z,33.91
2022-08-11T20:34:26.145Z,33.89
2022-08-11T20:37:13.715Z,33.86
2022-08-11T20:40:03.386Z,33.83
2022-08-11T20:42:52.357Z,33.80
2022-08-11T20:45:47.277Z,33.78
2022-08-11T20:48:45.622Z,33.74
2022-08-11T20:51:38.610Z,33.71
2022-08-11T20:54:38.222Z,33.68
2022-08-11T20:57:35.500Z,33.64
2022-08-11T21:00:39.926Z,33.60
2022-08-11T21:03:35.407Z,33.57
2022-08-11T21:06:26.348Z,33.56
2022-08-11T21:09:24.999Z,33.53
2022-08-11T21:12:13.693Z,33.50
2022-08-11T21:15:04.885Z,33.47
2022-08-11T21:18:00.261Z,33.43
2022-08-11T21:20:56.028Z,33.42
2022-08-11T21:23:44.217Z,33.40
2022-08-11T21:26:32.611Z,33.38
2022-08-11T21:29:19.623Z,33.35
2022-08-11T21:32:08.074Z,33.33
2022-08-11T21:34:55.341Z,33.29
2022-08-11T21:37:42.160Z,33.27
2022-08-11T21:40:29.951Z,33.25
2022-08-11T21:43:18.396Z,33.21
2022-08-11T21:46:05.944Z,33.20
2022-08-11T21:48:55.015Z,33.17
2022-08-11T21:51:41.542Z,33.15
2022-08-11T21:54:31.366Z,33.10
2022-08-11T21:57:17.989Z,33.08
2022-08-11T22:00:11.249Z,33.06
2022-08-11T22:02:58.633Z,33.03
2022-08-11T22:05:49.798Z,33.00
2022-08-11T22:08:36.143Z,32.97
2022-08-11T22:11:32.095Z,32.97
2022-08-11T22:14:19.323Z,32.94
2022-08-11T22:17:05.335Z,32.92
2022-08-11T22:19:53.409Z,32.91
2022-08-11T22:22:52.314Z,32.88
2022-08-11T22:25:51.649Z,32.86
2022-08-11T22:28:44.583Z,32.82
2022-08-11T22:31:31.093Z,32.80
2022-08-11T22:34:17.036Z,32.78
2022-08-11T22:37:07.034Z,32.75
2022-08-11T22:40:02.234Z,32.72
2022-08-11T22:42:49.329Z,32.70
2022-08-11T22:45:35.454Z,32.68
2022-08-11T22:48:24.093Z,32.67
2022-08-11T22:51:11.173Z,32.64
2022-08-11T22:53:59.462Z,32.61
2022-08-11T22:56:49.043Z,32.59
2022-08-11T22:59:37.267Z,32.55
2022-08-11T23:02:25.239Z,32.53
2022-08-11T23:05:12.188Z,32.51
2022-08-11T23:07:59.636Z,32.49
2022-08-11T23:10:46.321Z,32.46
2022-08-11T23:13:34.229Z,32.43
2022-08-11T23:16:20.752Z,32.40
2022-08-11T23:19:08.732Z,32.38
2022-08-11T23:21:56.619Z,32.36
2022-08-11T23:24:44.448Z,32.33
2022-08-11T23:27:32.561Z,32.32
2022-08-11T23:30:20.371Z,32.29
2022-08-11T23:33:14.114Z,32.27
2022-08-11T23:36:05.394Z,32.24
2022-08-11T23:38:52.142Z,32.21
2022-08-11T23:41:38.579Z,32.19
2022-08-11T23:44:26.643Z,32.17
2022-08-11T23:47:19.253Z,32.14
2022-08-11T23:50:06.857Z,32.12
2022-08-11T23:52:54.326Z,32.09
2022-08-11T23:55:40.801Z,32.07
2022-08-11T23:58:26.662Z,32.03
